Time;durP1;ratioP1;P1;durP2;ratioP2;P2;SDS_P1;SDS_P2;PMS_P1;PMS_P2;Temp;Humidity;BMP_temperature;BMP_pressure;BME280_temperature;BME280_humidity;BME280_pressure;Samples;Min_cycle;Max_cycle;Signal;HPM_P1;HPM_P2
2024/03/10 00:01:31;;;;;;;2.30;2.10;;;;;;;19.60;47.41;95693.09;5053322;28;20217;-27
2024/03/10 00:03:58;;;;;;;2.20;2.00;;;;;;;19.60;47.57;95688.00;5048711;28;20311;-26
2024/03/10 00:06:25;;;;;;;1.93;1.83;;;;;;;19.60;47.60;95693.94;5050858;28;20201;-28
2024/03/10 00:08:53;;;;;;;1.90;1.80;;;;;;;19.61;47.60;95693.09;5053773;28;20239;-27
2024/03/10 00:11:20;;;;;;;1.90;1.80;;;;;;;19.55;47.56;95693.06;5051441;28;20679;-26
2024/03/10 00:13:48;;;;;;;2.10;2.00;;;;;;;19.51;47.86;95685.38;5053629;28;20207;-27
2024/03/10 00:16:16;;;;;;;2.10;2.00;;;;;;;19.48;47.66;95681.09;5053890;28;20197;-26
2024/03/10 00:18:42;;;;;;;2.07;1.97;;;;;;;19.42;47.73;95672.56;5053105;28;20672;-28
2024/03/10 00:21:09;;;;;;;1.97;1.83;;;;;;;19.47;47.83;95675.97;5049367;28;20201;-29
2024/03/10 00:23:36;;;;;;;1.90;1.80;;;;;;;19.50;47.72;95681.09;5053405;28;20240;-26
2024/03/10 00:26:05;;;;;;;2.00;1.90;;;;;;;19.51;47.68;95677.72;5054087;28;20197;-28
2024/03/10 00:28:33;;;;;;;1.90;1.80;;;;;;;19.54;47.76;95682.84;5053336;28;20217;-28
2024/03/10 00:31:00;;;;;;;2.03;1.93;;;;;;;19.55;47.88;95674.34;5050327;28;20239;-27
2024/03/10 00:33:27;;;;;;;2.13;2.03;;;;;;;19.56;47.77;95681.16;5053244;28;20201;-25
2024/03/10 00:35:54;;;;;;;2.10;2.00;;;;;;;19.57;47.53;95677.78;5053754;28;20228;-26
2024/03/10 00:38:21;;;;;;;1.83;1.73;;;;;;;19.58;47.81;95674.38;5050172;28;20225;-26
2024/03/10 00:40:48;;;;;;;2.27;2.10;;;;;;;19.59;47.39;95676.94;5053313;28;20239;-28
2024/03/10 00:43:14;;;;;;;2.30;2.10;;;;;;;19.60;47.53;95677.81;5057178;28;20290;-27
2024/03/10 00:45:41;;;;;;;2.37;2.17;;;;;;;19.61;47.37;95667.63;5057388;28;20223;-27
2024/03/10 00:48:08;;;;;;;2.00;1.90;;;;;;;19.61;47.54;95662.53;5052772;28;20218;-30
2024/03/10 00:50:35;;;;;;;1.90;1.80;;;;;;;19.57;48.14;95658.22;5056612;28;20201;-27
2024/03/10 00:53:01;;;;;;;2.23;2.03;;;;;;;19.45;47.71;95653.03;5056504;28;20193;-26
2024/03/10 00:55:29;;;;;;;1.83;1.73;;;;;;;19.49;48.04;95661.56;5056744;28;20236;-26
2024/03/10 00:57:55;;;;;;;1.70;1.60;;;;;;;19.49;47.82;95671.75;5053639;28;20228;-27
2024/03/10 01:00:22;;;;;;;1.83;1.73;;;;;;;19.47;47.80;95661.56;5036339;28;20201;-30
2024/03/10 01:02:50;;;;;;;2.03;1.93;;;;;;;19.47;47.79;95668.34;5051564;28;20241;-27
2024/03/10 01:05:17;;;;;;;2.20;2.03;;;;;;;19.50;47.86;95660.72;5052819;28;20212;-27
2024/03/10 01:07:44;;;;;;;2.17;1.80;;;;;;;19.52;47.70;95667.56;5056420;28;20256;-26
2024/03/10 01:10:12;;;;;;;2.30;2.10;;;;;;;19.54;47.53;95662.47;5056678;28;20292;-26
2024/03/10 01:12:39;;;;;;;1.80;1.70;;;;;;;19.55;47.63;95662.50;5051235;28;20405;-29
2024/03/10 01:15:06;;;;;;;2.10;2.00;;;;;;;19.56;47.70;95650.56;5055952;28;20205;-29
2024/03/10 01:17:33;;;;;;;1.70;1.60;;;;;;;19.56;47.58;95659.09;5056066;28;20220;-27
2024/03/10 01:20:00;;;;;;;1.87;1.77;;;;;;;19.58;47.84;95656.56;5056364;28;20206;-27
2024/03/10 01:22:27;;;;;;;2.17;1.97;;;;;;;19.59;47.65;95648.91;5056245;28;20255;-26
2024/03/10 01:24:54;;;;;;;2.30;2.10;;;;;;;19.60;47.55;95647.22;5044105;28;20197;-31
2024/03/10 01:27:21;;;;;;;1.83;1.73;;;;;;;19.61;48.03;95646.38;5055903;28;20208;-27
2024/03/10 01:29:48;;;;;;;1.80;1.70;;;;;;;19.61;47.46;95634.50;5055604;28;20204;-36
2024/03/10 01:32:14;;;;;;;1.90;1.80;;;;;;;19.54;47.62;95627.63;5055614;28;20710;-32
2024/03/10 01:34:41;;;;;;;1.77;1.67;;;;;;;19.50;47.69;95627.59;5053108;28;20217;-26
2024/03/10 01:37:08;;;;;;;1.93;1.83;;;;;;;19.49;47.83;95628.47;5056205;28;20224;-26
2024/03/10 01:39:34;;;;;;;2.27;2.07;;;;;;;19.48;47.16;95625.06;5056088;28;20200;-29
2024/03/10 01:42:01;;;;;;;1.80;1.70;;;;;;;19.47;47.91;95625.03;5052788;28;20304;-27
2024/03/10 01:44:28;;;;;;;1.70;1.60;;;;;;;19.48;47.44;95627.59;5054573;28;20255;-27
2024/03/10 01:46:55;;;;;;;2.30;2.10;;;;;;;19.51;47.90;95616.59;5055904;28;20672;-27
2024/03/10 01:49:22;;;;;;;1.77;1.67;;;;;;;19.52;47.63;95616.59;5029532;28;20722;-26
2024/03/10 01:51:48;;;;;;;1.97;1.87;;;;;;;19.55;47.58;95613.22;5029026;28;20229;-26
2024/03/10 01:54:15;;;;;;;2.20;2.00;;;;;;;19.55;47.60;95611.53;5054367;28;20204;-31
2024/03/10 01:56:42;;;;;;;1.90;1.80;;;;;;;19.56;47.66;95603.03;5029328;28;20205;-27
2024/03/10 01:59:15;;;;;;;2.00;1.90;;;;;;;19.56;47.61;95594.53;5045860;28;20217;-29
2024/03/10 02:01:42;;;;;;;2.00;1.90;;;;;;;19.57;47.60;95602.19;5020004;28;20201;-27
2024/03/10 02:04:09;;;;;;;1.93;1.83;;;;;;;19.59;47.54;95597.09;5053014;28;20686;-27
2024/03/10 02:06:36;;;;;;;1.90;1.80;;;;;;;19.59;47.55;95582.66;5054972;28;20201;-28
2024/03/10 02:09:03;;;;;;;1.90;1.80;;;;;;;19.60;47.50;95581.00;5055146;28;20578;-26
2024/03/10 02:11:30;;;;;;;1.80;1.70;;;;;;;19.55;47.94;95585.19;5049064;28;20208;-29
2024/03/10 02:13:56;;;;;;;1.90;1.80;;;;;;;19.50;47.68;95582.63;5055297;28;20200;-26
2024/03/10 02:16:23;;;;;;;1.83;1.73;;;;;;;19.49;47.74;95587.69;5055054;28;20205;-26
2024/03/10 02:18:52;;;;;;;2.17;2.07;;;;;;;19.46;47.80;95575.81;5053711;28;20230;-32
2024/03/10 02:21:21;;;;;;;2.00;1.90;;;;;;;19.44;47.84;95574.06;5050475;28;20217;-26
2024/03/10 02:24:04;;;;;;;2.00;1.90;;;;;;;19.47;47.97;95569.00;5043351;28;20235;-26
2024/03/10 02:26:36;;;;;;;1.80;1.70;;;;;;;19.49;47.86;95568.19;5054144;28;20236;-26
2024/03/10 02:29:18;;;;;;;2.00;1.90;;;;;;;19.52;47.94;95563.09;5036651;28;20597;-27
2024/03/10 02:48:16;;;;;;;2.00;1.83;;;;;;;19.58;47.37;95560.59;5048335;28;20217;-29
2024/03/10 02:50:43;;;;;;;2.00;1.90;;;;;;;19.55;47.52;95564.81;5054023;28;20204;-27
2024/03/10 02:53:10;;;;;;;1.93;1.83;;;;;;;19.50;47.72;95556.28;5037899;28;20193;-29
2024/03/10 02:55:37;;;;;;;2.40;2.20;;;;;;;19.46;47.71;95557.97;5051944;28;20255;-26
2024/03/10 02:58:04;;;;;;;1.97;1.87;;;;;;;19.46;47.81;95552.03;5054103;28;20213;-27
2024/03/10 03:00:33;;;;;;;1.97;1.87;;;;;;;19.45;47.79;95556.25;5036842;28;20331;-26
2024/03/10 03:03:00;;;;;;;1.70;1.60;;;;;;;19.46;47.63;95557.13;5046825;28;20268;-26
2024/03/10 03:05:27;;;;;;;1.90;1.80;;;;;;;19.48;47.67;95556.28;5051760;28;20255;-27
2024/03/10 03:07:54;;;;;;;1.90;1.80;;;;;;;19.49;47.73;95550.34;5054151;28;20221;-26
2024/03/10 03:10:21;;;;;;;2.00;1.90;;;;;;;19.51;47.68;95551.19;5054198;28;20212;-26
2024/03/10 03:12:48;;;;;;;2.00;1.90;;;;;;;19.55;47.50;95554.63;5050961;28;20207;-26
2024/03/10 03:15:17;;;;;;;2.13;2.00;;;;;;;19.55;47.55;95546.97;5054398;28;20288;-28
2024/03/10 03:17:44;;;;;;;1.90;1.80;;;;;;;19.55;47.03;95545.28;5054267;28;20225;-26
2024/03/10 03:20:15;;;;;;;1.90;1.80;;;;;;;19.57;47.55;95541.03;5053478;28;20287;-29
2024/03/10 03:22:46;;;;;;;1.90;1.80;;;;;;;19.57;47.32;95537.66;5052531;28;20225;-27
2024/03/10 03:25:13;;;;;;;1.90;1.80;;;;;;;19.58;47.41;95542.75;5053846;28;20211;-28
2024/03/10 03:27:43;;;;;;;1.80;1.70;;;;;;;19.59;47.34;95534.25;5054140;28;20229;-26
2024/03/10 03:30:10;;;;;;;1.80;1.70;;;;;;;19.59;47.42;95533.41;5049299;28;20224;-27
2024/03/10 03:32:37;;;;;;;1.90;1.80;;;;;;;19.52;47.70;95530.00;5054157;28;20204;-27
2024/03/10 03:35:04;;;;;;;1.90;1.80;;;;;;;19.48;47.65;95525.69;5053944;28;20207;-26
2024/03/10 03:37:31;;;;;;;2.13;1.80;;;;;;;19.46;47.91;95522.31;5050768;28;20240;-26
2024/03/10 03:39:57;;;;;;;1.70;1.60;;;;;;;19.46;47.55;95531.63;5053681;28;20205;-27
2024/03/10 03:42:24;;;;;;;1.70;1.60;;;;;;;19.45;47.82;95525.69;5054189;28;20221;-28
2024/03/10 03:44:50;;;;;;;2.10;2.00;;;;;;;19.48;47.88;95525.69;5051555;28;20668;-26
2024/03/10 03:47:17;;;;;;;1.70;1.60;;;;;;;19.49;47.64;95526.56;5053932;28;20627;-26
2024/03/10 03:49:47;;;;;;;1.77;1.67;;;;;;;19.51;47.58;95530.81;5053361;28;20201;-33
2024/03/10 03:52:13;;;;;;;1.90;1.80;;;;;;;19.44;47.16;95508.72;5053306;28;20193;-31
2024/03/10 03:54:41;;;;;;;2.03;1.83;;;;;;;19.56;47.54;95520.66;5048806;28;20215;-27
2024/03/10 03:57:08;;;;;;;1.80;1.70;;;;;;;19.57;47.53;95518.09;5053350;28;20223;-30
2024/03/10 03:59:38;;;;;;;1.97;1.87;;;;;;;19.58;47.51;95524.06;5053716;28;20196;-26
2024/03/10 04:02:04;;;;;;;2.27;2.07;;;;;;;19.58;47.42;95516.41;5051560;28;20201;-27
2024/03/10 04:04:31;;;;;;;2.00;1.90;;;;;;;19.60;47.33;95517.28;5052155;28;20300;-28
2024/03/10 04:06:58;;;;;;;2.00;1.90;;;;;;;19.60;47.41;95509.66;5053440;28;20334;-26
2024/03/10 04:09:25;;;;;;;2.00;1.90;;;;;;;19.60;47.37;95502.84;5053340;28;20291;-28
2024/03/10 04:11:52;;;;;;;1.90;1.80;;;;;;;19.56;47.46;95502.81;5050998;28;20204;-26
2024/03/10 04:14:20;;;;;;;2.07;1.97;;;;;;;19.50;47.46;95508.75;5053610;28;20268;-26
2024/03/10 04:16:47;;;;;;;1.77;1.67;;;;;;;19.48;47.56;95507.88;5056277;28;20227;-36
2024/03/10 04:19:14;;;;;;;1.80;1.70;;;;;;;19.47;47.65;95506.19;5055974;28;20220;-31
2024/03/10 04:21:40;;;;;;;1.93;1.80;;;;;;;19.46;47.73;95503.63;5055196;28;20270;-25
2024/03/10 04:24:09;;;;;;;1.83;1.73;;;;;;;19.48;47.74;95505.31;5056838;28;20263;-30
2024/03/10 04:26:43;;;;;;;2.00;1.90;;;;;;;19.50;47.70;95502.78;5057915;28;20197;-27
2024/03/10 04:29:10;;;;;;;1.70;1.60;;;;;;;19.53;47.52;95496.03;5051834;28;20227;-29
2024/03/10 04:31:37;;;;;;;2.20;2.00;;;;;;;19.54;47.48;95486.69;5056717;28;20690;-26
2024/03/10 04:34:03;;;;;;;1.70;1.60;;;;;;;19.56;47.39;95492.63;5057274;28;20203;-26
2024/03/10 04:36:30;;;;;;;1.90;1.80;;;;;;;19.57;47.50;95484.16;5056838;28;20259;-28
2024/03/10 04:38:56;;;;;;;1.80;1.70;;;;;;;19.57;47.03;95477.34;5056798;28;20694;-26
2024/03/10 04:41:23;;;;;;;1.90;1.80;;;;;;;19.59;47.27;95470.56;5057526;28;20201;-26
2024/03/10 04:43:51;;;;;;;1.70;1.60;;;;;;;19.60;47.36;95468.88;5056464;28;20251;-29
2024/03/10 04:46:20;;;;;;;1.73;1.63;;;;;;;19.61;47.07;95462.94;5055036;28;20197;-26
2024/03/10 04:48:47;;;;;;;1.83;1.73;;;;;;;19.60;47.15;95462.06;5056697;28;20217;-26
2024/03/10 04:51:14;;;;;;;1.97;1.87;;;;;;;19.58;47.37;95455.28;5056204;28;20215;-27
2024/03/10 04:53:42;;;;;;;1.77;1.67;;;;;;;19.51;47.39;95445.91;5054734;28;20264;-28
2024/03/10 04:56:14;;;;;;;2.00;1.90;;;;;;;19.48;47.46;95446.72;5034187;28;20247;-37
2024/03/10 04:58:44;;;;;;;2.00;1.90;;;;;;;19.47;47.84;95437.41;5056279;28;20228;-27
2024/03/10 05:01:10;;;;;;;1.90;1.80;;;;;;;19.46;47.58;95427.22;5056394;28;20211;-27
2024/03/10 05:03:37;;;;;;;1.60;1.50;;;;;;;19.46;47.54;95417.03;5052947;28;20231;-28
2024/03/10 05:06:05;;;;;;;2.00;1.90;;;;;;;19.46;47.58;95420.44;5055811;28;20201;-25
2024/03/10 05:08:32;;;;;;;2.20;2.00;;;;;;;19.52;47.43;95425.56;5056230;28;20267;-27
2024/03/10 05:11:00;;;;;;;2.37;2.17;;;;;;;19.53;47.49;95406.84;5056063;28;20205;-26
2024/03/10 05:13:27;;;;;;;1.80;1.70;;;;;;;19.55;47.19;95407.72;5056785;28;20624;-27
2024/03/10 05:15:53;;;;;;;1.97;1.87;;;;;;;19.56;47.08;95408.56;5055869;28;20667;-34
2024/03/10 05:18:20;;;;;;;1.77;1.67;;;;;;;19.57;47.17;95405.19;5056048;28;20225;-29
2024/03/10 05:20:46;;;;;;;2.00;1.90;;;;;;;19.57;47.18;95410.28;5056427;28;20576;-27
2024/03/10 05:23:13;;;;;;;2.03;1.93;;;;;;;19.59;47.14;95408.56;5056132;28;20703;-26
2024/03/10 05:25:39;;;;;;;1.90;1.80;;;;;;;19.58;47.12;95417.94;5056565;28;20209;-28
2024/03/10 05:28:06;;;;;;;1.77;1.67;;;;;;;19.60;47.18;95426.41;5055335;28;20259;-28
2024/03/10 05:30:33;;;;;;;1.80;1.70;;;;;;;19.52;47.22;95423.00;5056698;28;20619;-27
2024/03/10 05:32:59;;;;;;;1.87;1.77;;;;;;;19.54;47.38;95433.19;5055778;28;20205;-26
2024/03/10 05:35:26;;;;;;;2.00;1.90;;;;;;;19.50;47.35;95434.00;5056561;28;20193;-25
2024/03/10 05:37:52;;;;;;;1.90;1.80;;;;;;;19.47;47.47;95432.31;5056746;28;20303;-28
2024/03/10 05:40:20;;;;;;;1.90;1.80;;;;;;;19.46;47.41;95427.22;5052029;28;20205;-27
2024/03/10 05:42:47;;;;;;;1.70;1.60;;;;;;;19.45;47.93;95426.34;5056115;28;20211;-27
2024/03/10 05:45:13;;;;;;;1.77;1.67;;;;;;;19.49;47.58;95432.31;5055793;28;20208;-26
2024/03/10 05:47:40;;;;;;;1.97;1.87;;;;;;;19.50;47.60;95424.69;5054354;28;20225;-26
2024/03/10 05:50:07;;;;;;;1.87;1.77;;;;;;;19.53;47.50;95422.16;5055559;28;20197;-27
2024/03/10 05:52:34;;;;;;;1.63;1.53;;;;;;;19.54;47.70;95426.38;5055708;28;20197;-26
2024/03/10 05:55:00;;;;;;;1.77;1.67;;;;;;;19.55;47.22;95428.09;5055820;28;20248;-26
2024/03/10 05:57:27;;;;;;;1.70;1.60;;;;;;;19.56;47.31;95434.91;5055667;28;20672;-33
2024/03/10 05:59:56;;;;;;;2.07;1.97;;;;;;;19.59;47.28;95428.94;5055409;28;20205;-30
2024/03/10 06:02:23;;;;;;;1.90;1.80;;;;;;;19.59;47.02;95434.03;5055281;28;20201;-28
2024/03/10 06:04:50;;;;;;;1.70;1.60;;;;;;;19.59;46.85;95434.91;5055405;28;20734;-26
2024/03/10 06:07:16;;;;;;;1.87;1.77;;;;;;;19.60;47.61;95445.97;5037528;28;20262;-27
2024/03/10 06:09:43;;;;;;;2.00;1.90;;;;;;;19.62;47.07;95439.16;5050344;28;20197;-26
2024/03/10 06:12:10;;;;;;;1.80;1.70;;;;;;;19.56;47.21;95449.31;5055226;28;20200;-27
2024/03/10 06:14:37;;;;;;;1.90;1.80;;;;;;;19.51;47.29;95456.09;5055433;28;20215;-26
2024/03/10 06:17:05;;;;;;;1.60;1.50;;;;;;;19.49;47.47;95456.09;5055700;28;20338;-28
2024/03/10 06:27:47;;;;;;;1.90;1.80;;;;;;;19.51;47.32;95444.19;5055223;28;20221;-27
2024/03/10 06:30:14;;;;;;;1.90;1.80;;;;;;;19.54;47.40;95443.38;5054847;28;20207;-26
2024/03/10 06:32:41;;;;;;;1.90;1.80;;;;;;;19.54;47.22;95433.19;5055218;28;20579;-26
2024/03/10 06:35:08;;;;;;;1.80;1.70;;;;;;;19.55;47.33;95443.41;5054621;28;20199;-28
2024/03/10 06:37:35;;;;;;;1.80;1.70;;;;;;;19.56;46.79;95449.31;5054762;28;20623;-29
2024/03/10 06:40:03;;;;;;;1.70;1.60;;;;;;;19.58;47.20;95452.72;5054190;28;20262;-26
2024/03/10 06:42:30;;;;;;;1.83;1.73;;;;;;;19.60;47.11;95458.69;5055381;28;20208;-27
2024/03/10 06:44:58;;;;;;;1.77;1.67;;;;;;;19.59;46.87;95452.75;5054989;28;20271;-28
2024/03/10 06:47:26;;;;;;;1.70;1.60;;;;;;;19.61;47.13;95460.38;5054730;28;20219;-27
2024/03/10 06:49:53;;;;;;;1.80;1.70;;;;;;;19.61;47.04;95465.47;5054506;28;20201;-26
2024/03/10 06:52:19;;;;;;;1.80;1.70;;;;;;;19.56;47.22;95469.69;5054564;28;20659;-30
2024/03/10 06:54:46;;;;;;;1.70;1.60;;;;;;;19.51;47.35;95456.94;5054744;28;20196;-27
2024/03/10 06:57:12;;;;;;;1.70;1.60;;;;;;;19.49;47.51;95455.25;5053762;28;20328;-25
2024/03/10 06:59:41;;;;;;;1.70;1.60;;;;;;;19.48;47.38;95449.28;5054431;28;20203;-37
2024/03/10 07:02:11;;;;;;;1.70;1.60;;;;;;;19.47;47.48;95447.59;5054229;28;20215;-28
2024/03/10 07:04:40;;;;;;;1.77;1.67;;;;;;;19.49;47.48;95447.59;5047874;28;20221;-27
2024/03/10 07:07:08;;;;;;;1.80;1.70;;;;;;;19.52;47.40;95447.59;5054455;28;20197;-26
2024/03/10 07:09:35;;;;;;;2.00;1.90;;;;;;;19.53;47.47;95468.00;5036481;28;20200;-27
2024/03/10 07:12:06;;;;;;;1.67;1.57;;;;;;;19.55;47.32;95455.25;5054679;28;20644;-26
2024/03/10 07:14:33;;;;;;;1.60;1.50;;;;;;;19.55;47.11;95445.94;5052582;28;20239;-26
2024/03/10 07:17:01;;;;;;;1.53;1.43;;;;;;;19.58;47.00;95442.53;5054442;28;20389;-27
2024/03/10 07:19:28;;;;;;;1.83;1.73;;;;;;;19.58;47.22;95451.03;5054078;28;20216;-26
2024/03/10 07:21:54;;;;;;;1.80;1.70;;;;;;;19.60;47.00;95444.25;5054808;28;20224;-32
2024/03/10 07:24:21;;;;;;;1.70;1.60;;;;;;;19.61;47.20;95451.06;5054218;28;20217;-26
2024/03/10 07:26:48;;;;;;;1.90;1.80;;;;;;;19.61;46.89;95440.88;5053974;28;20598;-26
2024/03/10 07:29:15;;;;;;;1.90;1.80;;;;;;;19.62;47.05;95434.06;5054286;28;20278;-26
2024/03/10 07:31:42;;;;;;;1.70;1.60;;;;;;;19.59;47.17;95421.31;5054105;28;20295;-26
2024/03/10 07:34:08;;;;;;;1.60;1.50;;;;;;;19.55;46.82;95417.06;5054242;28;20189;-26
2024/03/10 07:36:35;;;;;;;1.60;1.50;;;;;;;19.50;47.29;95406.84;5054182;28;20197;-35
2024/03/10 07:39:06;;;;;;;1.67;1.57;;;;;;;19.49;47.36;95392.41;5054252;28;20252;-27
2024/03/10 07:41:32;;;;;;;1.73;1.63;;;;;;;19.49;47.60;95399.19;5054106;28;20197;-26
2024/03/10 07:43:59;;;;;;;1.67;1.57;;;;;;;19.49;47.02;95401.75;5053997;28;20217;-27
2024/03/10 07:46:26;;;;;;;1.60;1.50;;;;;;;19.51;47.31;95403.44;5054537;28;20200;-27
2024/03/10 07:48:54;;;;;;;1.80;1.70;;;;;;;19.54;47.24;95402.63;5054251;28;20217;-27
2024/03/10 07:51:21;;;;;;;1.77;1.67;;;;;;;19.57;47.14;95402.63;5056833;28;20239;-29
2024/03/10 07:53:47;;;;;;;1.70;1.60;;;;;;;19.57;47.31;95390.72;5058036;28;20199;-30
2024/03/10 07:56:14;;;;;;;1.60;1.50;;;;;;;19.58;47.20;95389.03;5057671;28;20204;-27
2024/03/10 07:58:41;;;;;;;1.63;1.53;;;;;;;19.60;47.18;95387.38;5058245;28;20580;-26
2024/03/10 08:01:09;;;;;;;1.70;1.60;;;;;;;19.61;47.04;95389.06;5057732;28;20224;-25
2024/03/10 08:03:36;;;;;;;1.70;1.60;;;;;;;19.63;47.05;95389.91;5050274;28;20220;-27
2024/03/10 08:06:03;;;;;;;1.70;1.60;;;;;;;19.64;47.08;95391.59;5057784;28;20225;-26
2024/03/10 08:08:30;;;;;;;1.53;1.43;;;;;;;19.65;47.09;95385.66;5058068;28;20248;-26
2024/03/10 08:10:56;;;;;;;1.63;1.53;;;;;;;19.63;46.93;95383.09;5057374;28;20601;-28
2024/03/10 08:13:23;;;;;;;1.60;1.50;;;;;;;19.57;47.00;95388.19;5057879;28;20205;-27
2024/03/10 08:15:50;;;;;;;1.73;1.63;;;;;;;19.45;47.15;95375.41;5057597;28;20211;-27
2024/03/10 08:18:16;;;;;;;1.90;1.73;;;;;;;19.51;47.45;95380.53;5057458;28;20294;-26
2024/03/10 08:20:43;;;;;;;1.50;1.40;;;;;;;19.50;47.61;95376.28;5057303;28;20675;-26
2024/03/10 08:23:10;;;;;;;1.60;1.50;;;;;;;19.49;47.40;95371.19;5057742;28;20204;-35
2024/03/10 08:25:37;;;;;;;1.60;1.50;;;;;;;19.51;47.33;95372.06;5057196;28;20217;-28
2024/03/10 08:28:04;;;;;;;1.90;1.80;;;;;;;19.51;47.42;95375.44;5057582;28;20270;-27
2024/03/10 08:30:31;;;;;;;1.70;1.60;;;;;;;19.55;47.20;95377.16;5057168;28;20231;-28
2024/03/10 08:32:59;;;;;;;1.63;1.53;;;;;;;19.58;47.06;95366.13;5057811;28;20205;-27
2024/03/10 08:35:26;;;;;;;1.70;1.60;;;;;;;19.58;46.81;95371.22;5057540;28;20200;-27
2024/03/10 08:37:53;;;;;;;1.50;1.40;;;;;;;19.60;47.18;95377.16;5056947;28;20221;-27
2024/03/10 08:40:21;;;;;;;1.77;1.67;;;;;;;19.61;47.09;95383.94;5056578;28;20208;-30
2024/03/10 08:42:47;;;;;;;1.63;1.53;;;;;;;19.63;47.10;95382.28;5057501;28;20262;-26
2024/03/10 08:45:14;;;;;;;1.77;1.67;;;;;;;19.64;47.09;95383.97;5056717;28;20229;-27
2024/03/10 08:47:41;;;;;;;1.67;1.57;;;;;;;19.64;46.91;95373.78;5057109;28;20220;-26
2024/03/10 08:50:09;;;;;;;1.60;1.50;;;;;;;19.64;46.97;95386.50;5057224;28;20685;-28
2024/03/10 08:52:37;;;;;;;1.67;1.57;;;;;;;19.54;47.01;95377.97;5057147;28;20197;-26
2024/03/10 08:55:05;;;;;;;1.60;1.50;;;;;;;19.53;47.09;95389.03;5057242;28;20651;-27
2024/03/10 08:57:33;;;;;;;1.80;1.70;;;;;;;19.50;47.35;95383.91;5056586;28;20736;-28
2024/03/10 09:00:02;;;;;;;1.57;1.47;;;;;;;19.48;47.63;95388.16;5057053;28;20201;-26
2024/03/10 09:02:29;;;;;;;1.70;1.60;;;;;;;19.50;47.37;95380.50;5054999;28;20226;-27
2024/03/10 09:04:56;;;;;;;1.60;1.50;;;;;;;19.49;47.60;95372.03;5056812;28;20220;-26
2024/03/10 09:07:25;;;;;;;1.70;1.60;;;;;;;19.52;47.13;95373.75;5056793;28;20205;-29
2024/03/10 09:09:51;;;;;;;1.70;1.60;;;;;;;19.54;47.24;95372.06;5038736;28;20682;-27
2024/03/10 09:12:18;;;;;;;1.70;1.60;;;;;;;19.57;47.05;95351.69;5056255;28;20204;-26
2024/03/10 09:14:45;;;;;;;1.70;1.60;;;;;;;19.56;47.03;95347.41;5056522;28;20196;-34
2024/03/10 09:17:15;;;;;;;1.77;1.67;;;;;;;19.58;47.14;95349.13;5057152;28;20212;-32
2024/03/10 09:19:45;;;;;;;1.80;1.70;;;;;;;19.58;47.22;95343.19;5056639;28;20205;-26
2024/03/10 09:22:11;;;;;;;1.70;1.60;;;;;;;19.59;47.41;95338.09;5056711;28;20232;-28
2024/03/10 09:24:38;;;;;;;1.90;1.80;;;;;;;19.61;46.97;95327.91;5056609;28;20750;-27
2024/03/10 09:27:04;;;;;;;1.50;1.40;;;;;;;19.61;46.90;95328.75;5056424;28;20238;-26
2024/03/10 09:29:31;;;;;;;1.70;1.60;;;;;;;19.63;47.08;95326.22;5056316;28;20225;-26
2024/03/10 09:31:58;;;;;;;1.47;1.37;;;;;;;19.60;47.04;95331.31;5056357;28;20201;-27
2024/03/10 09:34:25;;;;;;;1.63;1.53;;;;;;;19.53;47.17;95321.94;5056581;28;20197;-26
2024/03/10 09:36:54;;;;;;;1.60;1.50;;;;;;;19.51;47.35;95321.94;5056633;28;20200;-31
2024/03/10 09:39:23;;;;;;;1.80;1.70;;;;;;;19.49;47.21;95313.47;5055908;28;20250;-28
2024/03/10 09:41:50;;;;;;;1.70;1.60;;;;;;;19.48;47.41;95293.91;5056260;28;20247;-28
2024/03/10 09:44:18;;;;;;;1.50;1.40;;;;;;;19.50;47.43;95301.53;5056311;28;20286;-26
2024/03/10 09:46:50;;;;;;;1.70;1.60;;;;;;;19.51;47.24;95311.75;5049142;28;20577;-26
2024/03/10 09:49:19;;;;;;;1.70;1.60;;;;;;;19.54;47.27;95313.47;5055872;28;20217;-26
2024/03/10 09:51:50;;;;;;;1.40;1.30;;;;;;;19.57;47.28;95316.03;5048273;28;20201;-26
2024/03/10 09:54:21;;;;;;;1.67;1.57;;;;;;;19.58;47.14;95322.81;5056492;28;20197;-27
2024/03/10 09:56:50;;;;;;;1.40;1.30;;;;;;;19.60;47.02;95318.56;5047958;28;20413;-26
2024/03/10 09:59:25;;;;;;;1.67;1.57;;;;;;;19.60;47.05;95301.56;5038788;28;20217;-28
2024/03/10 10:01:53;;;;;;;1.33;1.30;;;;;;;19.60;47.05;95301.56;5031127;28;20196;-28
2024/03/10 10:04:25;;;;;;;1.50;1.40;;;;;;;19.61;47.06;95290.56;5038013;28;20228;-26
2024/03/10 10:06:52;;;;;;;1.50;1.40;;;;;;;19.62;47.02;95293.94;5023336;28;20678;-26
2024/03/10 10:09:18;;;;;;;1.70;1.60;;;;;;;19.63;46.98;95293.09;5055935;28;20260;-26
2024/03/10 10:11:46;;;;;;;1.53;1.43;;;;;;;19.59;46.95;95302.44;5055398;28;20193;-26
2024/03/10 10:14:14;;;;;;;1.80;1.70;;;;;;;19.54;47.31;95298.19;5055190;28;20246;-26
2024/03/10 10:16:59;;;;;;;1.63;1.53;;;;;;;19.51;47.34;95293.09;5055174;28;20205;-26
2024/03/10 10:19:26;;;;;;;1.70;1.60;;;;;;;19.49;47.43;95303.28;5055613;28;20268;-32
2024/03/10 10:21:53;;;;;;;1.57;1.47;;;;;;;19.49;47.38;95307.50;5055803;28;20197;-27
2024/03/10 10:24:20;;;;;;;1.60;1.50;;;;;;;19.49;47.56;95302.41;5054891;28;20225;-28
2024/03/10 10:26:59;;;;;;;2.40;1.50;;;;;;;19.50;47.41;95309.19;5054457;28;20200;-26
2024/03/10 10:29:25;;;;;;;1.70;1.60;;;;;;;19.53;47.43;95299.88;5055041;28;20224;-29
2024/03/10 10:31:56;;;;;;;1.60;1.50;;;;;;;19.54;47.26;95303.28;5055486;28;20197;-27
2024/03/10 10:34:22;;;;;;;1.33;1.23;;;;;;;19.56;47.12;95301.56;5055513;28;20608;-28
2024/03/10 10:36:49;;;;;;;1.70;1.60;;;;;;;19.58;47.17;95297.31;5037285;28;20212;-28
2024/03/10 10:39:26;;;;;;;1.67;1.57;;;;;;;19.58;47.32;95293.09;5055011;28;20248;-26
2024/03/10 10:41:55;;;;;;;1.50;1.40;;;;;;;19.61;47.16;95294.78;5049643;28;20276;-28
2024/03/10 10:44:27;;;;;;;1.50;1.40;;;;;;;19.54;46.95;95276.09;5038327;28;20619;-27
2024/03/10 10:46:54;;;;;;;1.67;1.57;;;;;;;19.62;46.93;95284.59;5055178;28;20283;-30
2024/03/10 10:49:21;;;;;;;5.13;1.53;;;;;;;19.61;47.26;95282.91;5055421;28;20228;-29
2024/03/10 10:51:50;;;;;;;1.60;1.50;;;;;;;19.58;47.20;95276.94;5055333;28;20200;-26
2024/03/10 10:54:19;;;;;;;1.70;1.60;;;;;;;19.53;47.28;95268.44;5054747;28;20652;-26
2024/03/10 10:57:00;;;;;;;1.80;1.60;;;;;;;19.50;47.28;95276.06;5055099;28;20201;-26
2024/03/10 10:59:27;;;;;;;1.60;1.50;;;;;;;19.42;47.26;95258.25;5054463;28;20224;-30
2024/03/10 11:01:56;;;;;;;1.67;1.57;;;;;;;19.47;47.49;95274.38;5054618;28;20279;-27
2024/03/10 11:04:26;;;;;;;1.60;1.50;;;;;;;19.49;47.38;95267.59;5054689;28;20209;-26
2024/03/10 11:06:55;;;;;;;1.70;1.60;;;;;;;19.44;47.31;95250.59;5054614;28;20682;-26
2024/03/10 11:09:27;;;;;;;1.63;1.53;;;;;;;19.53;47.29;95264.22;5054900;28;20236;-29
2024/03/10 11:11:54;;;;;;;1.47;1.37;;;;;;;19.52;47.29;95254.00;5046642;28;20603;-26
2024/03/10 11:14:24;;;;;;;1.60;1.50;;;;;;;19.56;47.31;95258.25;5054686;28;20200;-26
2024/03/10 11:17:10;;;;;;;1.80;1.70;;;;;;;19.56;47.24;95253.16;5054393;28;20284;-26
2024/03/10 11:19:40;;;;;;;1.60;1.50;;;;;;;19.58;47.21;95251.47;5053738;28;20197;-26
2024/03/10 11:22:10;;;;;;;1.60;1.50;;;;;;;19.60;47.03;95242.16;5054566;28;20197;-27
2024/03/10 11:24:39;;;;;;;1.50;1.40;;;;;;;19.60;47.21;95234.50;5054091;28;20220;-26
2024/03/10 11:27:16;;;;;;;1.57;1.47;;;;;;;19.59;47.09;95236.19;5054029;28;20197;-26
2024/03/10 11:29:42;;;;;;;1.70;1.60;;;;;;;19.61;46.96;95221.75;5054154;28;20196;-29
2024/03/10 11:32:33;;;;;;;1.67;1.57;;;;;;;19.58;47.07;95226.00;5054224;28;20205;-27
2024/03/10 11:35:06;;;;;;;1.70;1.60;;;;;;;19.52;47.27;95223.44;5052298;28;20204;-29
2024/03/10 11:37:37;;;;;;;1.60;1.50;;;;;;;19.50;47.24;95215.81;5054057;28;20221;-26
2024/03/10 11:40:06;;;;;;;1.80;1.70;;;;;;;19.49;47.27;95215.81;5054202;28;20284;-26
2024/03/10 11:42:32;;;;;;;1.50;1.40;;;;;;;19.48;47.33;95214.94;5050533;28;20210;-27
2024/03/10 11:44:59;;;;;;;1.90;1.80;;;;;;;19.47;47.50;95213.25;5036377;28;20221;-27
2024/03/10 11:47:26;;;;;;;1.60;1.50;;;;;;;19.52;47.37;95210.72;5053387;28;20663;-26
2024/03/10 11:49:53;;;;;;;1.60;1.50;;;;;;;19.53;47.33;95214.94;5054058;28;20292;-26
2024/03/10 11:52:20;;;;;;;1.67;1.57;;;;;;;19.55;47.35;95223.44;5053948;28;20201;-30
2024/03/10 11:54:57;;;;;;;1.70;1.60;;;;;;;19.56;47.02;95226.00;5036179;28;20552;-28
2024/03/10 11:57:24;;;;;;;1.60;1.50;;;;;;;19.58;47.22;95220.91;5054152;28;20207;-28
2024/03/10 11:59:53;;;;;;;1.60;1.50;;;;;;;19.58;47.19;95219.22;5054389;28;20209;-26
2024/03/10 12:02:22;;;;;;;1.50;1.40;;;;;;;19.60;47.22;95221.75;5036542;28;20235;-27